sensor_id;sensor_type;location;lat;lon;timestamp;P1;durP1;ratioP1;P2;durP2;ratioP2
2305;SDS011;1161;51.922;8.896;2022-09-02T00:01:15;5.50;;;1.13;;
2305;SDS011;1161;51.922;8.896;2022-09-02T00:03:44;3.43;;;1.17;;
2305;SDS011;1161;51.922;8.896;2022-09-02T00:06:11;2.57;;;1.53;;
2305;SDS011;1161;51.922;8.896;2022-09-02T00:08:39;2.80;;;1.40;;
2305;SDS011;1161;51.922;8.896;2022-09-02T00:11:07;1.20;;;1.20;;
2305;SDS011;1161;51.922;8.896;2022-09-02T00:13:35;1.40;;;1.30;;
2305;SDS011;1161;51.922;8.896;2022-09-02T00:16:03;1.80;;;1.03;;
2305;SDS011;1161;51.922;8.896;2022-09-02T00:18:30;1.53;;;1.40;;
2305;SDS011;1161;51.922;8.896;2022-09-02T00:20:58;4.00;;;1.60;;
2305;SDS011;1161;51.922;8.896;2022-09-02T00:23:25;3.07;;;1.70;;
2305;SDS011;1161;51.922;8.896;2022-09-02T00:25:51;1.60;;;1.50;;
2305;SDS011;1161;51.922;8.896;2022-09-02T00:28:18;1.33;;;1.17;;
2305;SDS011;1161;51.922;8.896;2022-09-02T00:30:46;2.50;;;1.57;;
2305;SDS011;1161;51.922;8.896;2022-09-02T00:33:13;2.47;;;1.33;;
2305;SDS011;1161;51.922;8.896;2022-09-02T00:35:40;1.53;;;1.53;;
2305;SDS011;1161;51.922;8.896;2022-09-02T00:38:07;3.83;;;1.60;;
2305;SDS011;1161;51.922;8.896;2022-09-02T00:40:34;2.60;;;2.40;;
2305;SDS011;1161;51.922;8.896;2022-09-02T00:43:03;2.10;;;1.90;;
2305;SDS011;1161;51.922;8.896;2022-09-02T00:45:31;1.80;;;1.67;;
2305;SDS011;1161;51.922;8.896;2022-09-02T00:47:59;2.90;;;2.70;;
2305;SDS011;1161;51.922;8.896;2022-09-02T00:50:27;4.20;;;2.67;;
2305;SDS011;1161;51.922;8.896;2022-09-02T00:52:57;5.63;;;1.87;;
2305;SDS011;1161;51.922;8.896;2022-09-02T00:55:26;2.00;;;1.90;;
2305;SDS011;1161;51.922;8.896;2022-09-02T00:57:56;2.00;;;1.87;;
2305;SDS011;1161;51.922;8.896;2022-09-02T01:00:25;1.87;;;1.70;;
2305;SDS011;1161;51.922;8.896;2022-09-02T01:02:54;2.10;;;1.77;;
2305;SDS011;1161;51.922;8.896;2022-09-02T01:05:25;2.33;;;2.23;;
2305;SDS011;1161;51.922;8.896;2022-09-02T01:07:53;2.10;;;2.00;;
2305;SDS011;1161;51.922;8.896;2022-09-02T01:10:21;1.93;;;1.73;;
2305;SDS011;1161;51.922;8.896;2022-09-02T01:12:53;2.10;;;1.80;;
2305;SDS011;1161;51.922;8.896;2022-09-02T01:15:20;1.77;;;1.67;;
2305;SDS011;1161;51.922;8.896;2022-09-02T01:17:48;1.90;;;1.60;;
2305;SDS011;1161;51.922;8.896;2022-09-02T01:20:16;1.90;;;1.40;;
2305;SDS011;1161;51.922;8.896;2022-09-02T01:22:46;3.30;;;1.37;;
2305;SDS011;1161;51.922;8.896;2022-09-02T01:25:14;2.50;;;1.67;;
2305;SDS011;1161;51.922;8.896;2022-09-02T01:27:43;1.90;;;1.80;;
2305;SDS011;1161;51.922;8.896;2022-09-02T01:30:12;2.00;;;1.80;;
2305;SDS011;1161;51.922;8.896;2022-09-02T01:32:40;13.50;;;2.27;;
2305;SDS011;1161;51.922;8.896;2022-09-02T01:35:07;2.10;;;1.90;;
2305;SDS011;1161;51.922;8.896;2022-09-02T01:37:34;2.07;;;1.93;;
2305;SDS011;1161;51.922;8.896;2022-09-02T01:40:04;1.60;;;1.60;;
2305;SDS011;1161;51.922;8.896;2022-09-02T01:42:31;1.93;;;1.83;;
2305;SDS011;1161;51.922;8.896;2022-09-02T01:44:58;7.50;;;2.57;;
2305;SDS011;1161;51.922;8.896;2022-09-02T01:47:26;2.00;;;1.90;;
2305;SDS011;1161;51.922;8.896;2022-09-02T01:49:53;6.30;;;2.27;;
2305;SDS011;1161;51.922;8.896;2022-09-02T01:52:21;1.90;;;1.80;;
2305;SDS011;1161;51.922;8.896;2022-09-02T01:54:49;2.70;;;2.50;;
2305;SDS011;1161;51.922;8.896;2022-09-02T01:57:17;1.83;;;1.83;;
2305;SDS011;1161;51.922;8.896;2022-09-02T01:59:44;2.10;;;1.90;;
2305;SDS011;1161;51.922;8.896;2022-09-02T02:02:10;2.00;;;1.90;;
2305;SDS011;1161;51.922;8.896;2022-09-02T02:04:37;2.57;;;2.40;;
2305;SDS011;1161;51.922;8.896;2022-09-02T02:07:04;3.70;;;2.07;;
2305;SDS011;1161;51.922;8.896;2022-09-02T02:09:31;1.63;;;1.63;;
2305;SDS011;1161;51.922;8.896;2022-09-02T02:11:58;1.67;;;1.57;;
2305;SDS011;1161;51.922;8.896;2022-09-02T02:14:26;2.00;;;1.90;;
2305;SDS011;1161;51.922;8.896;2022-09-02T02:16:53;1.97;;;1.90;;
2305;SDS011;1161;51.922;8.896;2022-09-02T02:19:19;3.53;;;1.93;;
2305;SDS011;1161;51.922;8.896;2022-09-02T02:21:46;1.97;;;1.87;;
2305;SDS011;1161;51.922;8.896;2022-09-02T02:24:13;3.50;;;2.00;;
2305;SDS011;1161;51.922;8.896;2022-09-02T02:26:40;2.03;;;1.93;;
2305;SDS011;1161;51.922;8.896;2022-09-02T02:29:07;2.30;;;2.10;;
2305;SDS011;1161;51.922;8.896;2022-09-02T02:31:35;1.87;;;1.77;;
2305;SDS011;1161;51.922;8.896;2022-09-02T02:34:02;2.97;;;2.60;;
2305;SDS011;1161;51.922;8.896;2022-09-02T02:36:29;1.73;;;1.63;;
2305;SDS011;1161;51.922;8.896;2022-09-02T02:38:57;2.13;;;2.03;;
2305;SDS011;1161;51.922;8.896;2022-09-02T02:41:28;1.80;;;1.70;;
2305;SDS011;1161;51.922;8.896;2022-09-02T02:43:55;2.63;;;2.50;;
2305;SDS011;1161;51.922;8.896;2022-09-02T02:46:21;2.47;;;2.30;;
2305;SDS011;1161;51.922;8.896;2022-09-02T02:48:50;2.90;;;2.70;;
2305;SDS011;1161;51.922;8.896;2022-09-02T02:51:17;1.93;;;1.83;;
2305;SDS011;1161;51.922;8.896;2022-09-02T02:53:44;2.27;;;2.17;;
2305;SDS011;1161;51.922;8.896;2022-09-02T02:56:11;2.13;;;2.03;;
2305;SDS011;1161;51.922;8.896;2022-09-02T02:58:38;9.30;;;2.30;;
2305;SDS011;1161;51.922;8.896;2022-09-02T03:01:05;4.63;;;2.10;;
2305;SDS011;1161;51.922;8.896;2022-09-02T03:03:32;3.20;;;2.07;;
2305;SDS011;1161;51.922;8.896;2022-09-02T03:06:00;2.63;;;2.43;;
2305;SDS011;1161;51.922;8.896;2022-09-02T03:08:27;8.87;;;2.03;;
2305;SDS011;1161;51.922;8.896;2022-09-02T03:10:54;9.83;;;2.83;;
2305;SDS011;1161;51.922;8.896;2022-09-02T03:13:23;1.70;;;1.70;;
2305;SDS011;1161;51.922;8.896;2022-09-02T03:15:51;2.23;;;2.13;;
2305;SDS011;1161;51.922;8.896;2022-09-02T03:18:18;4.10;;;2.30;;
2305;SDS011;1161;51.922;8.896;2022-09-02T03:20:46;2.30;;;2.20;;
2305;SDS011;1161;51.922;8.896;2022-09-02T03:23:14;3.17;;;2.17;;
2305;SDS011;1161;51.922;8.896;2022-09-02T03:25:43;2.10;;;2.00;;
2305;SDS011;1161;51.922;8.896;2022-09-02T03:28:11;2.27;;;2.17;;
2305;SDS011;1161;51.922;8.896;2022-09-02T03:30:38;3.07;;;2.77;;
2305;SDS011;1161;51.922;8.896;2022-09-02T03:33:06;2.23;;;2.13;;
2305;SDS011;1161;51.922;8.896;2022-09-02T03:35:37;1.97;;;1.90;;
2305;SDS011;1161;51.922;8.896;2022-09-02T03:38:05;6.03;;;2.47;;
2305;SDS011;1161;51.922;8.896;2022-09-02T03:40:33;2.00;;;1.90;;
2305;SDS011;1161;51.922;8.896;2022-09-02T03:43:01;2.53;;;2.33;;
2305;SDS011;1161;51.922;8.896;2022-09-02T03:45:28;1.90;;;1.80;;
2305;SDS011;1161;51.922;8.896;2022-09-02T03:47:56;2.40;;;2.30;;
2305;SDS011;1161;51.922;8.896;2022-09-02T03:50:26;6.77;;;2.43;;
2305;SDS011;1161;51.922;8.896;2022-09-02T03:52:55;3.20;;;3.03;;
2305;SDS011;1161;51.922;8.896;2022-09-02T03:55:23;4.33;;;2.10;;
2305;SDS011;1161;51.922;8.896;2022-09-02T03:57:52;3.13;;;2.67;;
2305;SDS011;1161;51.922;8.896;2022-09-02T04:00:21;2.23;;;2.13;;
2305;SDS011;1161;51.922;8.896;2022-09-02T04:02:49;6.53;;;2.80;;
2305;SDS011;1161;51.922;8.896;2022-09-02T04:05:16;2.63;;;2.23;;
2305;SDS011;1161;51.922;8.896;2022-09-02T04:07:46;6.00;;;2.50;;
2305;SDS011;1161;51.922;8.896;2022-09-02T04:10:15;2.67;;;2.40;;
2305;SDS011;1161;51.922;8.896;2022-09-02T04:12:42;2.90;;;2.57;;
2305;SDS011;1161;51.922;8.896;2022-09-02T04:15:12;6.90;;;2.77;;
2305;SDS011;1161;51.922;8.896;2022-09-02T04:17:41;2.80;;;2.70;;
2305;SDS011;1161;51.922;8.896;2022-09-02T04:20:09;2.43;;;2.23;;
2305;SDS011;1161;51.922;8.896;2022-09-02T04:22:37;3.30;;;3.00;;
2305;SDS011;1161;51.922;8.896;2022-09-02T04:25:04;2.23;;;2.17;;
2305;SDS011;1161;51.922;8.896;2022-09-02T04:27:33;7.83;;;3.70;;
2305;SDS011;1161;51.922;8.896;2022-09-02T04:30:00;3.47;;;2.80;;
2305;SDS011;1161;51.922;8.896;2022-09-02T04:32:31;2.53;;;2.33;;
2305;SDS011;1161;51.922;8.896;2022-09-02T04:35:00;1.77;;;1.67;;
2305;SDS011;1161;51.922;8.896;2022-09-02T04:37:27;6.80;;;2.63;;
2305;SDS011;1161;51.922;8.896;2022-09-02T04:39:55;3.03;;;2.60;;
2305;SDS011;1161;51.922;8.896;2022-09-02T04:42:24;2.10;;;2.00;;
2305;SDS011;1161;51.922;8.896;2022-09-02T04:44:51;3.30;;;3.00;;
2305;SDS011;1161;51.922;8.896;2022-09-02T04:47:18;2.90;;;2.80;;
2305;SDS011;1161;51.922;8.896;2022-09-02T04:49:47;4.30;;;3.90;;
2305;SDS011;1161;51.922;8.896;2022-09-02T04:52:17;5.47;;;3.90;;
2305;SDS011;1161;51.922;8.896;2022-09-02T04:54:48;4.47;;;4.07;;
2305;SDS011;1161;51.922;8.896;2022-09-02T04:57:15;3.50;;;3.30;;
2305;SDS011;1161;51.922;8.896;2022-09-02T04:59:44;9.50;;;4.60;;
2305;SDS011;1161;51.922;8.896;2022-09-02T05:02:15;4.40;;;4.03;;
2305;SDS011;1161;51.922;8.896;2022-09-02T05:04:47;6.33;;;4.37;;
2305;SDS011;1161;51.922;8.896;2022-09-02T05:07:14;5.90;;;5.10;;
2305;SDS011;1161;51.922;8.896;2022-09-02T05:09:41;8.20;;;4.47;;
2305;SDS011;1161;51.922;8.896;2022-09-02T05:12:10;5.80;;;4.83;;
2305;SDS011;1161;51.922;8.896;2022-09-02T05:14:37;5.07;;;3.90;;
2305;SDS011;1161;51.922;8.896;2022-09-02T05:17:04;4.53;;;4.10;;
2305;SDS011;1161;51.922;8.896;2022-09-02T05:19:31;14.33;;;4.07;;
2305;SDS011;1161;51.922;8.896;2022-09-02T05:22:11;3.63;;;3.37;;
2305;SDS011;1161;51.922;8.896;2022-09-02T05:24:41;3.80;;;3.50;;
2305;SDS011;1161;51.922;8.896;2022-09-02T05:27:08;8.07;;;4.10;;
2305;SDS011;1161;51.922;8.896;2022-09-02T05:29:36;4.37;;;3.10;;
2305;SDS011;1161;51.922;8.896;2022-09-02T05:32:03;7.00;;;2.90;;
2305;SDS011;1161;51.922;8.896;2022-09-02T05:34:34;6.63;;;3.30;;
2305;SDS011;1161;51.922;8.896;2022-09-02T05:37:02;3.63;;;3.33;;
2305;SDS011;1161;51.922;8.896;2022-09-02T05:39:31;4.23;;;2.80;;
2305;SDS011;1161;51.922;8.896;2022-09-02T05:41:59;5.50;;;2.87;;
2305;SDS011;1161;51.922;8.896;2022-09-02T05:44:26;3.03;;;2.83;;
2305;SDS011;1161;51.922;8.896;2022-09-02T05:46:53;2.90;;;2.50;;
2305;SDS011;1161;51.922;8.896;2022-09-02T05:49:40;5.00;;;3.33;;
2305;SDS011;1161;51.922;8.896;2022-09-02T05:52:07;8.13;;;3.17;;
2305;SDS011;1161;51.922;8.896;2022-09-02T05:54:40;3.20;;;2.73;;
2305;SDS011;1161;51.922;8.896;2022-09-02T05:57:07;2.90;;;2.70;;
2305;SDS011;1161;51.922;8.896;2022-09-02T05:59:37;4.23;;;3.20;;
2305;SDS011;1161;51.922;8.896;2022-09-02T06:02:07;2.40;;;2.30;;
2305;SDS011;1161;51.922;8.896;2022-09-02T06:04:37;2.03;;;1.93;;
2305;SDS011;1161;51.922;8.896;2022-09-02T06:07:05;2.73;;;2.30;;
2305;SDS011;1161;51.922;8.896;2022-09-02T06:09:34;3.50;;;3.30;;
2305;SDS011;1161;51.922;8.896;2022-09-02T06:12:02;2.83;;;2.53;;
2305;SDS011;1161;51.922;8.896;2022-09-02T06:14:29;6.90;;;3.07;;
2305;SDS011;1161;51.922;8.896;2022-09-02T06:16:57;3.07;;;2.87;;
2305;SDS011;1161;51.922;8.896;2022-09-02T06:19:24;2.27;;;2.17;;
2305;SDS011;1161;51.922;8.896;2022-09-02T06:21:53;6.60;;;2.77;;
2305;SDS011;1161;51.922;8.896;2022-09-02T06:24:20;16.10;;;3.47;;
2305;SDS011;1161;51.922;8.896;2022-09-02T06:26:47;2.67;;;2.57;;
2305;SDS011;1161;51.922;8.896;2022-09-02T06:29:16;2.40;;;2.20;;
2305;SDS011;1161;51.922;8.896;2022-09-02T06:31:43;5.50;;;2.40;;
2305;SDS011;1161;51.922;8.896;2022-09-02T06:34:10;8.37;;;3.10;;
2305;SDS011;1161;51.922;8.896;2022-09-02T06:36:38;1.90;;;1.80;;
2305;SDS011;1161;51.922;8.896;2022-09-02T06:39:05;3.13;;;2.00;;
2305;SDS011;1161;51.922;8.896;2022-09-02T06:41:32;2.33;;;2.23;;
2305;SDS011;1161;51.922;8.896;2022-09-02T06:44:00;2.43;;;2.23;;
2305;SDS011;1161;51.922;8.896;2022-09-02T06:46:30;2.27;;;2.17;;
2305;SDS011;1161;51.922;8.896;2022-09-02T06:48:59;5.63;;;2.33;;
2305;SDS011;1161;51.922;8.896;2022-09-02T06:51:27;2.50;;;2.30;;
2305;SDS011;1161;51.922;8.896;2022-09-02T06:53:56;2.40;;;2.30;;
2305;SDS011;1161;51.922;8.896;2022-09-02T06:56:23;3.20;;;2.33;;
2305;SDS011;1161;51.922;8.896;2022-09-02T06:58:51;3.40;;;1.90;;
2305;SDS011;1161;51.922;8.896;2022-09-02T07:01:18;2.37;;;1.90;;
2305;SDS011;1161;51.922;8.896;2022-09-02T07:03:47;5.90;;;2.80;;
2305;SDS011;1161;51.922;8.896;2022-09-02T07:06:32;2.57;;;1.90;;
2305;SDS011;1161;51.922;8.896;2022-09-02T07:09:02;2.77;;;2.57;;
2305;SDS011;1161;51.922;8.896;2022-09-02T07:11:30;2.10;;;2.00;;
2305;SDS011;1161;51.922;8.896;2022-09-02T07:13:56;2.80;;;1.97;;
2305;SDS011;1161;51.922;8.896;2022-09-02T07:16:25;7.60;;;2.87;;
2305;SDS011;1161;51.922;8.896;2022-09-02T07:18:53;2.23;;;2.13;;
2305;SDS011;1161;51.922;8.896;2022-09-02T07:21:20;3.83;;;1.87;;
2305;SDS011;1161;51.922;8.896;2022-09-02T07:23:47;2.10;;;2.00;;
2305;SDS011;1161;51.922;8.896;2022-09-02T07:26:14;1.77;;;1.67;;
2305;SDS011;1161;51.922;8.896;2022-09-02T07:28:41;3.77;;;2.20;;
2305;SDS011;1161;51.922;8.896;2022-09-02T07:31:08;2.07;;;1.87;;
2305;SDS011;1161;51.922;8.896;2022-09-02T07:33:35;3.20;;;2.13;;
2305;SDS011;1161;51.922;8.896;2022-09-02T07:36:04;2.10;;;1.93;;
2305;SDS011;1161;51.922;8.896;2022-09-02T07:38:31;7.90;;;2.40;;
2305;SDS011;1161;51.922;8.896;2022-09-02T07:40:58;10.13;;;2.37;;
2305;SDS011;1161;51.922;8.896;2022-09-02T07:43:25;2.03;;;1.90;;
2305;SDS011;1161;51.922;8.896;2022-09-02T07:45:52;6.63;;;2.20;;
2305;SDS011;1161;51.922;8.896;2022-09-02T07:48:20;3.07;;;2.23;;
2305;SDS011;1161;51.922;8.896;2022-09-02T07:50:47;1.97;;;1.73;;
2305;SDS011;1161;51.922;8.896;2022-09-02T07:53:15;1.83;;;1.73;;
2305;SDS011;1161;51.922;8.896;2022-09-02T07:55:43;2.43;;;1.93;;
2305;SDS011;1161;51.922;8.896;2022-09-02T07:58:10;6.50;;;1.90;;
2305;SDS011;1161;51.922;8.896;2022-09-02T08:00:37;8.47;;;4.27;;
2305;SDS011;1161;51.922;8.896;2022-09-02T08:03:04;3.00;;;1.60;;
2305;SDS011;1161;51.922;8.896;2022-09-02T08:05:32;2.07;;;1.97;;
2305;SDS011;1161;51.922;8.896;2022-09-02T08:07:59;2.80;;;1.87;;
2305;SDS011;1161;51.922;8.896;2022-09-02T08:10:27;2.03;;;1.60;;
2305;SDS011;1161;51.922;8.896;2022-09-02T08:12:54;4.37;;;2.37;;
2305;SDS011;1161;51.922;8.896;2022-09-02T08:15:22;5.80;;;2.23;;
2305;SDS011;1161;51.922;8.896;2022-09-02T08:17:52;3.70;;;2.67;;
2305;SDS011;1161;51.922;8.896;2022-09-02T08:20:18;2.97;;;2.13;;
2305;SDS011;1161;51.922;8.896;2022-09-02T08:22:45;3.50;;;2.10;;
2305;SDS011;1161;51.922;8.896;2022-09-02T08:25:12;8.90;;;2.10;;
2305;SDS011;1161;51.922;8.896;2022-09-02T08:27:40;6.63;;;2.20;;
2305;SDS011;1161;51.922;8.896;2022-09-02T08:30:07;5.33;;;2.93;;
2305;SDS011;1161;51.922;8.896;2022-09-02T08:32:35;5.70;;;2.23;;
2305;SDS011;1161;51.922;8.896;2022-09-02T08:35:03;12.27;;;3.50;;
2305;SDS011;1161;51.922;8.896;2022-09-02T08:37:31;3.33;;;2.53;;
2305;SDS011;1161;51.922;8.896;2022-09-02T08:39:59;2.67;;;2.47;;
2305;SDS011;1161;51.922;8.896;2022-09-02T08:42:28;2.50;;;2.27;;
2305;SDS011;1161;51.922;8.896;2022-09-02T08:45:02;5.87;;;2.23;;
2305;SDS011;1161;51.922;8.896;2022-09-02T08:47:32;14.50;;;3.10;;
2305;SDS011;1161;51.922;8.896;2022-09-02T08:50:02;7.03;;;2.93;;
2305;SDS011;1161;51.922;8.896;2022-09-02T08:52:32;3.50;;;2.20;;
2305;SDS011;1161;51.922;8.896;2022-09-02T08:55:05;3.03;;;2.33;;
2305;SDS011;1161;51.922;8.896;2022-09-02T08:57:33;4.47;;;1.90;;
2305;SDS011;1161;51.922;8.896;2022-09-02T09:00:03;7.70;;;2.70;;
2305;SDS011;1161;51.922;8.896;2022-09-02T09:02:32;3.07;;;2.50;;
2305;SDS011;1161;51.922;8.896;2022-09-02T09:05:15;2.40;;;1.70;;
2305;SDS011;1161;51.922;8.896;2022-09-02T09:07:52;11.53;;;2.40;;
2305;SDS011;1161;51.922;8.896;2022-09-02T09:10:28;2.60;;;1.80;;
2305;SDS011;1161;51.922;8.896;2022-09-02T09:13:05;2.73;;;2.60;;
2305;SDS011;1161;51.922;8.896;2022-09-02T09:15:43;3.30;;;2.10;;
2305;SDS011;1161;51.922;8.896;2022-09-02T09:18:14;3.63;;;2.00;;
2305;SDS011;1161;51.922;8.896;2022-09-02T09:20:43;3.43;;;1.63;;
2305;SDS011;1161;51.922;8.896;2022-09-02T09:23:16;3.70;;;1.90;;
2305;SDS011;1161;51.922;8.896;2022-09-02T09:25:46;7.53;;;2.70;;
2305;SDS011;1161;51.922;8.896;2022-09-02T09:28:15;4.50;;;2.07;;
2305;SDS011;1161;51.922;8.896;2022-09-02T09:30:43;2.27;;;1.83;;
2305;SDS011;1161;51.922;8.896;2022-09-02T09:33:12;3.60;;;1.80;;
2305;SDS011;1161;51.922;8.896;2022-09-02T09:35:46;4.50;;;2.30;;
2305;SDS011;1161;51.922;8.896;2022-09-02T09:38:14;2.37;;;2.27;;
2305;SDS011;1161;51.922;8.896;2022-09-02T09:40:41;4.97;;;1.90;;
2305;SDS011;1161;51.922;8.896;2022-09-02T09:43:11;9.50;;;2.00;;
2305;SDS011;1161;51.922;8.896;2022-09-02T09:45:39;3.67;;;1.80;;
2305;SDS011;1161;51.922;8.896;2022-09-02T09:48:12;2.00;;;1.83;;
2305;SDS011;1161;51.922;8.896;2022-09-02T09:50:42;2.93;;;2.00;;
2305;SDS011;1161;51.922;8.896;2022-09-02T09:53:18;5.40;;;2.00;;
2305;SDS011;1161;51.922;8.896;2022-09-02T09:55:49;2.07;;;1.97;;
2305;SDS011;1161;51.922;8.896;2022-09-02T09:58:17;1.77;;;1.67;;
2305;SDS011;1161;51.922;8.896;2022-09-02T10:00:44;8.63;;;1.67;;
2305;SDS011;1161;51.922;8.896;2022-09-02T10:03:20;2.23;;;2.13;;
2305;SDS011;1161;51.922;8.896;2022-09-02T10:05:48;2.60;;;2.40;;
2305;SDS011;1161;51.922;8.896;2022-09-02T10:08:19;2.70;;;2.17;;
2305;SDS011;1161;51.922;8.896;2022-09-02T10:10:54;4.33;;;2.30;;
2305;SDS011;1161;51.922;8.896;2022-09-02T10:13:23;1.77;;;1.67;;
2305;SDS011;1161;51.922;8.896;2022-09-02T10:15:56;1.83;;;1.73;;
2305;SDS011;1161;51.922;8.896;2022-09-02T10:18:33;5.30;;;2.43;;
2305;SDS011;1161;51.922;8.896;2022-09-02T10:21:04;1.37;;;1.27;;
2305;SDS011;1161;51.922;8.896;2022-09-02T10:23:36;4.00;;;1.93;;
2305;SDS011;1161;51.922;8.896;2022-09-02T10:26:11;2.00;;;1.90;;
2305;SDS011;1161;51.922;8.896;2022-09-02T10:28:51;2.37;;;1.47;;
2305;SDS011;1161;51.922;8.896;2022-09-02T10:31:43;1.70;;;1.60;;
2305;SDS011;1161;51.922;8.896;2022-09-02T10:34:17;11.80;;;1.67;;
2305;SDS011;1161;51.922;8.896;2022-09-02T10:36:53;8.90;;;2.40;;
2305;SDS011;1161;51.922;8.896;2022-09-02T10:39:33;2.83;;;2.10;;
2305;SDS011;1161;51.922;8.896;2022-09-02T10:42:07;13.30;;;2.07;;
2305;SDS011;1161;51.922;8.896;2022-09-02T10:44:39;3.17;;;1.20;;
2305;SDS011;1161;51.922;8.896;2022-09-02T10:47:14;8.13;;;1.80;;
2305;SDS011;1161;51.922;8.896;2022-09-02T10:49:52;4.20;;;1.40;;
2305;SDS011;1161;51.922;8.896;2022-09-02T10:52:29;2.27;;;1.83;;
2305;SDS011;1161;51.922;8.896;2022-09-02T10:55:05;9.47;;;2.13;;
2305;SDS011;1161;51.922;8.896;2022-09-02T10:57:39;5.63;;;1.57;;
2305;SDS011;1161;51.922;8.896;2022-09-02T11:00:12;3.43;;;1.90;;
2305;SDS011;1161;51.922;8.896;2022-09-02T11:02:41;2.60;;;1.70;;
2305;SDS011;1161;51.922;8.896;2022-09-02T11:05:12;1.50;;;1.40;;
2305;SDS011;1161;51.922;8.896;2022-09-02T11:07:41;2.23;;;2.13;;
2305;SDS011;1161;51.922;8.896;2022-09-02T11:10:10;1.60;;;1.50;;
2305;SDS011;1161;51.922;8.896;2022-09-02T11:12:44;2.03;;;1.93;;
2305;SDS011;1161;51.922;8.896;2022-09-02T11:15:14;1.50;;;1.40;;
2305;SDS011;1161;51.922;8.896;2022-09-02T11:17:45;3.10;;;1.80;;
2305;SDS011;1161;51.922;8.896;2022-09-02T11:20:17;2.07;;;1.93;;
2305;SDS011;1161;51.922;8.896;2022-09-02T11:22:52;1.90;;;1.83;;
2305;SDS011;1161;51.922;8.896;2022-09-02T11:25:23;5.33;;;1.97;;
2305;SDS011;1161;51.922;8.896;2022-09-02T11:27:51;10.03;;;2.50;;
2305;SDS011;1161;51.922;8.896;2022-09-02T11:30:21;5.70;;;2.50;;
2305;SDS011;1161;51.922;8.896;2022-09-02T11:32:51;1.57;;;1.47;;
2305;SDS011;1161;51.922;8.896;2022-09-02T11:35:24;2.40;;;2.20;;
2305;SDS011;1161;51.922;8.896;2022-09-02T11:37:53;2.30;;;2.20;;
2305;SDS011;1161;51.922;8.896;2022-09-02T11:40:23;2.80;;;2.00;;
2305;SDS011;1161;51.922;8.896;2022-09-02T11:42:56;3.33;;;1.30;;
2305;SDS011;1161;51.922;8.896;2022-09-02T11:45:31;6.03;;;2.47;;
2305;SDS011;1161;51.922;8.896;2022-09-02T11:48:19;12.60;;;2.77;;
2305;SDS011;1161;51.922;8.896;2022-09-02T11:51:14;2.77;;;2.37;;
2305;SDS011;1161;51.922;8.896;2022-09-02T11:54:02;1.80;;;1.80;;
2305;SDS011;1161;51.922;8.896;2022-09-02T11:56:34;4.23;;;2.03;;
2305;SDS011;1161;51.922;8.896;2022-09-02T11:59:02;2.33;;;2.13;;
2305;SDS011;1161;51.922;8.896;2022-09-02T12:01:31;1.60;;;1.60;;
2305;SDS011;1161;51.922;8.896;2022-09-02T12:04:00;2.90;;;2.20;;
2305;SDS011;1161;51.922;8.896;2022-09-02T12:06:30;2.40;;;2.20;;
2305;SDS011;1161;51.922;8.896;2022-09-02T12:09:05;2.17;;;2.10;;
2305;SDS011;1161;51.922;8.896;2022-09-02T12:11:35;7.63;;;2.07;;
2305;SDS011;1161;51.922;8.896;2022-09-02T12:14:04;2.73;;;2.53;;
2305;SDS011;1161;51.922;8.896;2022-09-02T12:16:41;2.70;;;2.50;;
2305;SDS011;1161;51.922;8.896;2022-09-02T12:19:16;1.83;;;1.70;;
2305;SDS011;1161;51.922;8.896;2022-09-02T12:24:51;8.00;;;2.43;;
2305;SDS011;1161;51.922;8.896;2022-09-02T12:27:25;3.87;;;2.20;;
2305;SDS011;1161;51.922;8.896;2022-09-02T12:29:53;3.60;;;1.80;;
2305;SDS011;1161;51.922;8.896;2022-09-02T12:35:30;6.50;;;2.40;;
2305;SDS011;1161;51.922;8.896;2022-09-02T12:38:20;4.23;;;2.50;;
2305;SDS011;1161;51.922;8.896;2022-09-02T12:40:53;2.80;;;2.60;;
2305;SDS011;1161;51.922;8.896;2022-09-02T12:43:23;2.00;;;1.87;;
2305;SDS011;1161;51.922;8.896;2022-09-02T12:45:56;3.03;;;2.20;;
2305;SDS011;1161;51.922;8.896;2022-09-02T12:48:27;2.20;;;2.10;;
2305;SDS011;1161;51.922;8.896;2022-09-02T12:51:02;2.83;;;2.17;;
2305;SDS011;1161;51.922;8.896;2022-09-02T12:53:33;5.20;;;1.60;;
2305;SDS011;1161;51.922;8.896;2022-09-02T12:56:04;2.50;;;2.30;;
2305;SDS011;1161;51.922;8.896;2022-09-02T12:58:34;2.20;;;2.00;;
2305;SDS011;1161;51.922;8.896;2022-09-02T13:01:05;3.07;;;2.30;;
2305;SDS011;1161;51.922;8.896;2022-09-02T13:03:56;3.33;;;1.97;;
2305;SDS011;1161;51.922;8.896;2022-09-02T13:06:46;2.03;;;1.93;;
2305;SDS011;1161;51.922;8.896;2022-09-02T13:09:37;3.53;;;2.07;;
2305;SDS011;1161;51.922;8.896;2022-09-02T13:15:22;4.00;;;2.83;;
2305;SDS011;1161;51.922;8.896;2022-09-02T13:18:06;2.23;;;2.00;;
2305;SDS011;1161;51.922;8.896;2022-09-02T13:21:04;2.67;;;2.03;;
2305;SDS011;1161;51.922;8.896;2022-09-02T13:23:47;2.23;;;1.43;;
2305;SDS011;1161;51.922;8.896;2022-09-02T13:26:40;5.33;;;2.03;;
2305;SDS011;1161;51.922;8.896;2022-09-02T13:30:00;2.30;;;1.77;;
2305;SDS011;1161;51.922;8.896;2022-09-02T13:32:31;4.83;;;2.10;;
2305;SDS011;1161;51.922;8.896;2022-09-02T13:34:59;3.63;;;2.13;;
2305;SDS011;1161;51.922;8.896;2022-09-02T13:37:31;3.70;;;2.40;;
2305;SDS011;1161;51.922;8.896;2022-09-02T13:39:59;8.27;;;2.17;;
2305;SDS011;1161;51.922;8.896;2022-09-02T13:42:30;3.57;;;2.30;;
2305;SDS011;1161;51.922;8.896;2022-09-02T13:45:07;4.00;;;2.03;;
2305;SDS011;1161;51.922;8.896;2022-09-02T13:47:34;2.97;;;2.27;;
2305;SDS011;1161;51.922;8.896;2022-09-02T13:50:02;2.40;;;2.00;;
2305;SDS011;1161;51.922;8.896;2022-09-02T13:52:30;2.47;;;2.03;;
2305;SDS011;1161;51.922;8.896;2022-09-02T13:54:57;8.23;;;2.40;;
2305;SDS011;1161;51.922;8.896;2022-09-02T13:57:25;6.00;;;2.27;;
2305;SDS011;1161;51.922;8.896;2022-09-02T13:59:54;5.00;;;2.13;;
2305;SDS011;1161;51.922;8.896;2022-09-02T14:02:24;2.23;;;2.00;;
2305;SDS011;1161;51.922;8.896;2022-09-02T14:04:55;9.30;;;1.87;;
2305;SDS011;1161;51.922;8.896;2022-09-02T14:07:26;10.37;;;2.20;;
2305;SDS011;1161;51.922;8.896;2022-09-02T14:09:56;2.33;;;2.13;;
2305;SDS011;1161;51.922;8.896;2022-09-02T14:12:24;5.77;;;2.00;;
2305;SDS011;1161;51.922;8.896;2022-09-02T14:14:51;4.93;;;2.27;;
2305;SDS011;1161;51.922;8.896;2022-09-02T14:17:21;1.80;;;1.70;;
2305;SDS011;1161;51.922;8.896;2022-09-02T14:19:49;1.70;;;1.60;;
2305;SDS011;1161;51.922;8.896;2022-09-02T14:22:18;2.00;;;1.90;;
2305;SDS011;1161;51.922;8.896;2022-09-02T14:24:47;6.93;;;2.10;;
2305;SDS011;1161;51.922;8.896;2022-09-02T14:27:15;4.80;;;2.50;;
2305;SDS011;1161;51.922;8.896;2022-09-02T14:29:43;4.43;;;2.40;;
2305;SDS011;1161;51.922;8.896;2022-09-02T14:32:11;4.90;;;1.77;;
2305;SDS011;1161;51.922;8.896;2022-09-02T14:34:40;3.00;;;2.50;;
2305;SDS011;1161;51.922;8.896;2022-09-02T14:37:15;1.90;;;1.80;;
2305;SDS011;1161;51.922;8.896;2022-09-02T14:42:42;3.60;;;2.13;;
2305;SDS011;1161;51.922;8.896;2022-09-02T14:45:10;3.87;;;1.80;;
2305;SDS011;1161;51.922;8.896;2022-09-02T14:47:37;4.17;;;2.00;;
2305;SDS011;1161;51.922;8.896;2022-09-02T14:50:09;2.70;;;2.10;;
2305;SDS011;1161;51.922;8.896;2022-09-02T14:52:36;2.27;;;2.17;;
2305;SDS011;1161;51.922;8.896;2022-09-02T14:55:03;2.33;;;2.23;;
2305;SDS011;1161;51.922;8.896;2022-09-02T14:57:31;5.00;;;1.70;;
2305;SDS011;1161;51.922;8.896;2022-09-02T15:00:00;5.17;;;1.90;;
2305;SDS011;1161;51.922;8.896;2022-09-02T15:02:31;2.60;;;2.37;;
2305;SDS011;1161;51.922;8.896;2022-09-02T15:05:00;2.07;;;1.73;;
2305;SDS011;1161;51.922;8.896;2022-09-02T15:07:29;2.10;;;1.80;;
2305;SDS011;1161;51.922;8.896;2022-09-02T15:09:56;5.30;;;2.27;;
2305;SDS011;1161;51.922;8.896;2022-09-02T15:12:24;4.30;;;1.63;;
2305;SDS011;1161;51.922;8.896;2022-09-02T15:14:54;2.00;;;1.90;;
2305;SDS011;1161;51.922;8.896;2022-09-02T15:17:21;2.00;;;1.90;;
2305;SDS011;1161;51.922;8.896;2022-09-02T15:19:48;2.10;;;2.00;;
2305;SDS011;1161;51.922;8.896;2022-09-02T15:22:15;4.50;;;1.83;;
2305;SDS011;1161;51.922;8.896;2022-09-02T15:24:45;2.63;;;1.90;;
2305;SDS011;1161;51.922;8.896;2022-09-02T15:27:14;5.40;;;2.17;;
2305;SDS011;1161;51.922;8.896;2022-09-02T15:29:41;2.47;;;2.03;;
2305;SDS011;1161;51.922;8.896;2022-09-02T15:32:07;2.37;;;2.10;;
2305;SDS011;1161;51.922;8.896;2022-09-02T15:34:34;2.47;;;2.13;;
2305;SDS011;1161;51.922;8.896;2022-09-02T15:37:01;3.10;;;1.50;;
2305;SDS011;1161;51.922;8.896;2022-09-02T15:39:28;1.50;;;1.50;;
2305;SDS011;1161;51.922;8.896;2022-09-02T15:41:56;2.90;;;2.50;;
2305;SDS011;1161;51.922;8.896;2022-09-02T15:44:23;7.73;;;3.73;;